createdAt,value
2018-08-30T00:01:10.338Z,100913.00
2018-08-30T00:06:14.382Z,100920.00
2018-08-30T00:11:18.175Z,100920.00
2018-08-30T00:16:21.982Z,100934.00
2018-08-30T00:21:26.126Z,100940.00
2018-08-30T00:26:30.206Z,100951.00
2018-08-30T00:31:34.235Z,100958.00
2018-08-30T00:36:38.426Z,100963.00
2018-08-30T00:41:42.491Z,100968.00
2018-08-30T00:46:46.547Z,100974.00
2018-08-30T00:51:50.586Z,100984.00
2018-08-30T00:56:54.682Z,100979.00
2018-08-30T01:01:58.474Z,100978.00
2018-08-30T01:07:02.542Z,100988.00
2018-08-30T01:12:06.674Z,100995.00
2018-08-30T01:17:10.777Z,101000.00
2018-08-30T01:22:14.816Z,101007.00
2018-08-30T01:27:18.616Z,101010.00
2018-08-30T01:32:22.404Z,101014.00
2018-08-30T01:37:26.459Z,101016.00
2018-08-30T01:42:30.535Z,101019.00
2018-08-30T01:47:34.598Z,101023.00
2018-08-30T01:52:38.730Z,101035.00
2018-08-30T01:57:42.534Z,101038.00
2018-08-30T02:02:46.639Z,101042.00
2018-08-30T02:07:50.667Z,101047.00
2018-08-30T02:12:54.545Z,101051.00
2018-08-30T02:17:58.610Z,101054.00
2018-08-30T02:23:02.430Z,101061.00
2018-08-30T02:28:06.464Z,101062.00
2018-08-30T02:33:10.556Z,101071.00
2018-08-30T02:38:14.586Z,101068.00
2018-08-30T02:43:18.686Z,101072.00
2018-08-30T02:48:22.724Z,101067.00
2018-08-30T02:53:26.509Z,101065.00
2018-08-30T02:58:30.326Z,101071.00
2018-08-30T03:03:34.359Z,101072.00
2018-08-30T03:08:38.422Z,101071.00
2018-08-30T03:13:42.456Z,101068.00
2018-08-30T03:18:46.408Z,101070.00
2018-08-30T03:23:50.466Z,101073.00
2018-08-30T03:28:54.564Z,101080.00
2018-08-30T03:33:58.627Z,101080.00
2018-08-30T03:39:02.774Z,101089.00
2018-08-30T03:44:06.838Z,101101.00
2018-08-30T03:49:11.016Z,101099.00
2018-08-30T03:54:14.839Z,101102.00
2018-08-30T03:59:18.934Z,101104.00
2018-08-30T04:04:23.073Z,101101.00
2018-08-30T04:09:27.123Z,101108.00
2018-08-30T04:14:31.188Z,101113.00
2018-08-30T04:19:35.006Z,101123.00
2018-08-30T04:24:39.064Z,101122.00
2018-08-30T04:29:43.137Z,101129.00
2018-08-30T04:34:47.247Z,101130.00
2018-08-30T04:39:51.069Z,101130.00
2018-08-30T04:44:54.949Z,101140.00
2018-08-30T04:49:58.818Z,101150.00
2018-08-30T04:55:02.819Z,101152.00
2018-08-30T05:00:06.662Z,101155.00
2018-08-30T05:05:10.734Z,101163.00
2018-08-30T05:10:14.841Z,101172.00
2018-08-30T05:15:18.896Z,101180.00
2018-08-30T05:20:23.215Z,101184.00
2018-08-30T05:25:27.063Z,101183.00
2018-08-30T05:30:31.316Z,101183.00
2018-08-30T05:35:35.432Z,101190.00
2018-08-30T05:40:39.610Z,101196.00
2018-08-30T05:45:43.658Z,101201.00
2018-08-30T05:50:47.751Z,101198.00
2018-08-30T05:55:52.139Z,101205.00
2018-08-30T06:00:56.021Z,101207.00
2018-08-30T06:05:59.865Z,101213.00
2018-08-30T06:11:03.679Z,101217.00
2018-08-30T06:16:07.840Z,101219.00
2018-08-30T06:21:11.875Z,101223.00
2018-08-30T06:26:15.712Z,101224.00
2018-08-30T06:31:19.784Z,101232.00
2018-08-30T06:36:23.613Z,101234.00
2018-08-30T06:41:27.429Z,101235.00
2018-08-30T06:46:31.261Z,101234.00
2018-08-30T06:51:35.326Z,101239.00
2018-08-30T06:56:39.507Z,101245.00
2018-08-30T07:01:43.569Z,101247.00
2018-08-30T07:06:47.671Z,101246.00
2018-08-30T07:11:51.719Z,101257.00
2018-08-30T07:16:55.894Z,101257.00
2018-08-30T07:22:06.271Z,101266.00
2018-08-30T07:27:10.503Z,101273.00
2018-08-30T07:32:14.310Z,101276.00
2018-08-30T07:37:18.135Z,101281.00
2018-08-30T07:42:22.213Z,101294.00
2018-08-30T07:47:26.049Z,101303.00
2018-08-30T07:52:30.331Z,101309.00
2018-08-30T07:57:37.234Z,101314.00
2018-08-30T08:02:41.028Z,101319.00
2018-08-30T08:07:44.837Z,101323.00
2018-08-30T08:12:48.980Z,101334.00
2018-08-30T08:17:52.994Z,101349.00
2018-08-30T08:22:57.063Z,101354.00
2018-08-30T08:28:01.132Z,101350.00
2018-08-30T08:33:05.256Z,101370.00
2018-08-30T08:38:09.105Z,101361.00
2018-08-30T08:43:13.138Z,101374.00
2018-08-30T08:48:17.226Z,101379.00
2018-08-30T08:53:21.276Z,101385.00
2018-08-30T08:58:25.326Z,101392.00
2018-08-30T09:03:29.133Z,101387.00
2018-08-30T09:08:33.221Z,101392.00
2018-08-30T09:13:37.351Z,101397.00
2018-08-30T09:18:41.383Z,101366.00
2018-08-30T09:23:45.546Z,101398.00
2018-08-30T09:28:49.381Z,101399.00
2018-08-30T09:33:53.577Z,101371.00
2018-08-30T09:38:57.630Z,101410.00
2018-08-30T09:44:01.741Z,101411.00
2018-08-30T09:49:06.410Z,101383.00
2018-08-30T09:54:10.542Z,101406.00
2018-08-30T09:59:14.366Z,101378.00
2018-08-30T10:04:19.176Z,101401.00
2018-08-30T10:09:23.293Z,101399.00
2018-08-30T10:14:27.347Z,101383.00
2018-08-30T10:19:31.395Z,101384.00
2018-08-30T10:24:35.206Z,101384.00
2018-08-30T10:29:39.290Z,101389.00
2018-08-30T10:34:43.359Z,101391.00
2018-08-30T10:39:47.557Z,101411.00
2018-08-30T10:44:51.380Z,101414.00
2018-08-30T10:49:55.530Z,101392.00
2018-08-30T10:54:59.527Z,101392.00
2018-08-30T11:00:03.664Z,101409.00
2018-08-30T11:05:07.771Z,101413.00
2018-08-30T11:10:11.813Z,101395.00
2018-08-30T11:15:15.693Z,101397.00
2018-08-30T11:20:19.794Z,101403.00
2018-08-30T11:25:23.867Z,101405.00
2018-08-30T11:30:27.922Z,101405.00
2018-08-30T11:35:31.990Z,101408.00
2018-08-30T11:40:36.051Z,101405.00
2018-08-30T11:45:40.130Z,101405.00
2018-08-30T11:50:44.203Z,101411.00
2018-08-30T11:55:48.386Z,101406.00
2018-08-30T12:00:52.547Z,101408.00
2018-08-30T12:05:56.511Z,101414.00
2018-08-30T12:11:00.787Z,101416.00
2018-08-30T12:16:05.275Z,101424.00
2018-08-30T12:21:09.386Z,101433.00
2018-08-30T12:26:13.213Z,101430.00
2018-08-30T12:31:17.608Z,101432.00
2018-08-30T12:36:21.651Z,101434.00
2018-08-30T12:41:25.871Z,101435.00
2018-08-30T12:46:29.630Z,101436.00
2018-08-30T12:51:33.874Z,101444.00
2018-08-30T12:56:37.876Z,101443.00
2018-08-30T13:01:41.939Z,101445.00
2018-08-30T13:06:50.113Z,101439.00
2018-08-30T13:11:54.441Z,101436.00
2018-08-30T13:16:58.742Z,101436.00
2018-08-30T13:22:02.999Z,101429.00
2018-08-30T13:27:07.033Z,101433.00
2018-08-30T13:32:11.128Z,101428.00
2018-08-30T13:37:15.308Z,101438.00
2018-08-30T13:42:19.365Z,101426.00
2018-08-30T13:47:23.142Z,101438.00
2018-08-30T13:52:27.335Z,101437.00
2018-08-30T13:57:31.424Z,101443.00
2018-08-30T14:02:35.606Z,101447.00
2018-08-30T14:07:39.427Z,101449.00
2018-08-30T14:12:43.526Z,101447.00
2018-08-30T14:17:47.318Z,101444.00
2018-08-30T14:22:51.234Z,101441.00
2018-08-30T14:27:55.346Z,101437.00
2018-08-30T14:32:59.448Z,101446.00
2018-08-30T14:38:03.493Z,101439.00
2018-08-30T14:43:07.391Z,101439.00
2018-08-30T14:48:11.206Z,101432.00
2018-08-30T14:53:15.341Z,101426.00
2018-08-30T14:58:19.086Z,101435.00
2018-08-30T15:03:23.230Z,101437.00
2018-08-30T15:08:27.299Z,101431.00
2018-08-30T15:13:31.358Z,101427.00
2018-08-30T15:18:35.559Z,101425.00
2018-08-30T15:23:39.438Z,101423.00
2018-08-30T15:28:43.493Z,101432.00
2018-08-30T15:33:47.447Z,101441.00
2018-08-30T15:38:51.403Z,101446.00
2018-08-30T15:43:55.238Z,101444.00
2018-08-30T15:48:59.438Z,101451.00
2018-08-30T15:54:03.415Z,101448.00
2018-08-30T15:59:07.256Z,101440.00
2018-08-30T16:04:11.319Z,101446.00
2018-08-30T16:09:15.390Z,101445.00
2018-08-30T16:14:19.801Z,101438.00
2018-08-30T16:19:23.904Z,101439.00
2018-08-30T16:24:28.006Z,101434.00
2018-08-30T16:29:31.885Z,101437.00
2018-08-30T16:34:35.954Z,101431.00
2018-08-30T16:39:39.900Z,101427.00
2018-08-30T16:44:44.034Z,101434.00
2018-08-30T16:49:48.153Z,101435.00
2018-08-30T16:54:51.991Z,101431.00
2018-08-30T16:59:56.091Z,101426.00
2018-08-30T17:05:00.143Z,101425.00
2018-08-30T17:10:04.217Z,101428.00
2018-08-30T17:15:08.294Z,101426.00
2018-08-30T17:20:21.294Z,101425.00
2018-08-30T17:25:25.475Z,101430.00
2018-08-30T17:30:29.446Z,101423.00
2018-08-30T17:35:33.368Z,101424.00
2018-08-30T17:40:37.423Z,101419.00
2018-08-30T17:45:41.529Z,101423.00
2018-08-30T17:50:45.355Z,101426.00
2018-08-30T17:55:49.296Z,101420.00
2018-08-30T18:00:53.370Z,101423.00
2018-08-30T18:05:57.510Z,101428.00
2018-08-30T18:11:01.642Z,101439.00
2018-08-30T18:16:06.684Z,101439.00
2018-08-30T18:21:10.914Z,101436.00
2018-08-30T18:26:16.075Z,101438.00
2018-08-30T18:31:20.188Z,101448.00
2018-08-30T18:36:24.043Z,101453.00
2018-08-30T18:41:28.107Z,101469.00
2018-08-30T18:46:32.566Z,101470.00
2018-08-30T18:51:36.634Z,101468.00
2018-08-30T18:56:43.264Z,101476.00
2018-08-30T19:01:47.389Z,101477.00
2018-08-30T19:06:51.430Z,101477.00
2018-08-30T19:11:55.559Z,101481.00
2018-08-30T19:17:04.990Z,101481.00
2018-08-30T19:22:09.078Z,101492.00
2018-08-30T19:27:13.120Z,101492.00
2018-08-30T19:32:17.268Z,101495.00
2018-08-30T19:37:21.318Z,101501.00
2018-08-30T19:42:25.137Z,101501.00
2018-08-30T19:47:29.179Z,101500.00
2018-08-30T19:52:33.272Z,101502.00
2018-08-30T19:57:37.302Z,101506.00
2018-08-30T20:02:42.221Z,101506.00
2018-08-30T20:07:46.030Z,101497.00
2018-08-30T20:12:49.853Z,101492.00
2018-08-30T20:17:53.931Z,101495.00
2018-08-30T20:22:57.962Z,101497.00
2018-08-30T20:28:02.031Z,101496.00
2018-08-30T20:33:06.404Z,101492.00
2018-08-30T20:38:10.490Z,101491.00
2018-08-30T20:43:14.543Z,101490.00
2018-08-30T20:48:18.350Z,101501.00
2018-08-30T20:53:22.411Z,101505.00
2018-08-30T20:58:26.458Z,101509.00
2018-08-30T21:03:30.511Z,101509.00
2018-08-30T21:08:34.594Z,101507.00
2018-08-30T21:13:38.675Z,101507.00
2018-08-30T21:18:42.486Z,101512.00
2018-08-30T21:23:46.610Z,101519.00
2018-08-30T21:28:50.658Z,101519.00
2018-08-30T21:33:54.739Z,101518.00
2018-08-30T21:38:58.658Z,101520.00
2018-08-30T21:44:02.849Z,101523.00
2018-08-30T21:49:06.737Z,101527.00
2018-08-30T21:54:10.841Z,101534.00
2018-08-30T21:59:14.894Z,101539.00
2018-08-30T22:04:19.022Z,101538.00
2018-08-30T22:09:23.150Z,101540.00
2018-08-30T22:14:27.201Z,101541.00
2018-08-30T22:19:31.286Z,101535.00
2018-08-30T22:24:35.081Z,101540.00
2018-08-30T22:29:39.228Z,101540.00
2018-08-30T22:34:43.273Z,101543.00
2018-08-30T22:39:48.030Z,101545.00
2018-08-30T22:44:51.809Z,101544.00
2018-08-30T22:49:55.938Z,101547.00
2018-08-30T22:54:59.729Z,101542.00
2018-08-30T23:00:03.733Z,101539.00
2018-08-30T23:05:07.790Z,101543.00
2018-08-30T23:10:11.693Z,101539.00
2018-08-30T23:15:15.877Z,101533.00
2018-08-30T23:20:19.710Z,101537.00
2018-08-30T23:25:23.790Z,101532.00
2018-08-30T23:30:27.628Z,101530.00
2018-08-30T23:35:32.055Z,101527.00
2018-08-30T23:40:35.896Z,101525.00
2018-08-30T23:45:40.011Z,101529.00
2018-08-30T23:50:44.067Z,101530.00
2018-08-30T23:55:47.881Z,101540.00
